VTBO

Trat Airport

Thailand
TAF VTBO 171100Z 1712/1812 23010KT 8000 SCT020 TEMPO 1716/1720 6000 -TSRA FEW018CB SCT030 BKN100 BECMG 1720/1721 5000 BR BECMG 1801/1803 7000 NSW TEMPO 1806/1810 VRB12KT 5000 TSRA FEW018CB SCT030 BKN100
Issued Valid From Valid To
Aug-17 @ 11:00 UTC
(4 hours ago)
Aug-17 @ 12:00 UTC
(3 hours ago)
Aug-18 @ 12:00 UTC
(in 21 hours)
Aug-17 @ 12:00 to Aug-17 @ 20:00
TAF VTBO 171100Z 1712/1812 23010KT 8000 SCT020
Wind Visibility Clouds
230° at 10 knots 7,998 meters
  • Scattered at 2,000' AGL
Temporary Aug-17 @ 16:00 to Aug-17 @ 20:00
TEMPO 1716/1720 6000 -TSRA FEW018CB SCT030 BKN100
Visibility Clouds Conditions
6,003 meters
  • Few at 1,800' AGL
  • Scattered at 3,000' AGL
  • Broken at 10,000' AGL
  • Light Thunderstorm
  • Light Rain
Becoming Aug-17 @ 20:00 to Aug-18 @ 01:00
BECMG 1720/1721 5000 BR
Wind Visibility Clouds Conditions
230° at 10 knots 5,005 meters
  • Scattered at 2,000' AGL
  • Mist
Becoming Aug-18 @ 01:00 to Aug-18 @ 12:00
BECMG 1801/1803 7000 NSW
Wind Visibility Clouds Conditions
230° at 10 knots 7,001 meters
  • Scattered at 2,000' AGL
Temporary Aug-18 @ 06:00 to Aug-18 @ 10:00
TEMPO 1806/1810 VRB12KT 5000 TSRA FEW018CB SCT030 BKN100
Wind Visibility Clouds Conditions
Variable at 12 knots 5,005 meters
  • Few at 1,800' AGL
  • Scattered at 3,000' AGL
  • Broken at 10,000' AGL
  • Thunderstorm
  • Rain
TAF VTBO 171100Z 1712/1812 23010KT 8000 SCT020 TEMPO 1716/1720 6000 -TSRA FEW018CB SCT030 BKN100 BECMG 1720/1721 5000 BR BECMG 1801/1803 7000 NSW TEMPO 1806/1810 VRB12KT 5000 TSRA FEW018CB SCT030 BKN100
Issued Aug-17 @ 11:00 UTC
(4 hours ago)
Valid From Aug-17 @ 12:00 UTC
(3 hours ago)
Valid To Aug-18 @ 12:00 UTC
(in 21 hours)
Aug-17 @ 12:00 - Aug-17 @ 20:00
Wind Visibility
230° at 10 knots 7,998 meters
Clouds
  • Scattered at 2,000' AGL
Temporary Aug-17 @ 16:00 - Aug-17 @ 20:00
Clouds
  • Few at 1,800' AGL
  • Scattered at 3,000' AGL
  • Broken at 10,000' AGL
Conditions
  • Light Thunderstorm
  • Light Rain
Becoming Aug-17 @ 20:00 - Aug-18 @ 01:00
Wind Visibility
230° at 10 knots 5,005 meters
Clouds
  • Scattered at 2,000' AGL
Conditions
  • Mist
Becoming Aug-18 @ 01:00 - Aug-18 @ 12:00
Wind Visibility
230° at 10 knots 7,001 meters
Clouds
  • Scattered at 2,000' AGL
Conditions
Temporary Aug-18 @ 06:00 - Aug-18 @ 10:00
Wind Visibility
Variable at 12 knots 5,005 meters
Clouds
  • Few at 1,800' AGL
  • Scattered at 3,000' AGL
  • Broken at 10,000' AGL
Conditions
  • Thunderstorm
  • Rain